sensor_id;sensor_type;location;lat;lon;timestamp;pressure;altitude;pressure_sealevel;temperature;humidity
10462;BME280;5278;42.656;23.374;2024-01-30T00:01:16;96575.31;;;2.32;68.73
10462;BME280;5278;42.656;23.374;2024-01-30T00:03:43;96576.81;;;2.36;68.40
10462;BME280;5278;42.656;23.374;2024-01-30T00:06:11;96577.81;;;2.33;68.04
10462;BME280;5278;42.656;23.374;2024-01-30T00:08:40;96572.97;;;2.27;67.87
10462;BME280;5278;42.656;23.374;2024-01-30T00:11:07;96576.13;;;2.32;67.58
10462;BME280;5278;42.656;23.374;2024-01-30T00:13:34;96575.06;;;2.36;66.77
10462;BME280;5278;42.656;23.374;2024-01-30T00:16:01;96592.19;;;2.36;67.23
10462;BME280;5278;42.656;23.374;2024-01-30T00:18:27;96573.50;;;2.34;67.37
10462;BME280;5278;42.656;23.374;2024-01-30T00:20:54;96579.44;;;2.34;67.17
10462;BME280;5278;42.656;23.374;2024-01-30T00:23:21;96577.09;;;2.30;67.05
10462;BME280;5278;42.656;23.374;2024-01-30T00:25:50;96580.25;;;2.35;67.54
10462;BME280;5278;42.656;23.374;2024-01-30T00:28:16;96581.09;;;2.35;66.89
10462;BME280;5278;42.656;23.374;2024-01-30T00:30:43;96591.50;;;2.32;67.69
10462;BME280;5278;42.656;23.374;2024-01-30T00:33:10;96578.09;;;2.27;66.55
10462;BME280;5278;42.656;23.374;2024-01-30T00:35:37;96587.22;;;2.33;66.93
10462;BME280;5278;42.656;23.374;2024-01-30T00:38:04;96584.66;;;2.33;67.29
10462;BME280;5278;42.656;23.374;2024-01-30T00:40:33;96587.34;;;2.30;67.20
10462;BME280;5278;42.656;23.374;2024-01-30T00:43:01;96585.78;;;2.27;67.07
10462;BME280;5278;42.656;23.374;2024-01-30T00:45:28;96580.00;;;2.24;67.00
10462;BME280;5278;42.656;23.374;2024-01-30T00:47:55;96586.53;;;2.29;67.74
10462;BME280;5278;42.656;23.374;2024-01-30T00:50:22;96590.97;;;2.26;67.82
10462;BME280;5278;42.656;23.374;2024-01-30T00:52:49;96582.44;;;2.25;68.14
10462;BME280;5278;42.656;23.374;2024-01-30T00:55:16;96592.34;;;2.15;67.32
10462;BME280;5278;42.656;23.374;2024-01-30T00:57:43;96577.25;;;2.09;68.17
10462;BME280;5278;42.656;23.374;2024-01-30T01:00:12;96579.97;;;2.06;68.17
10462;BME280;5278;42.656;23.374;2024-01-30T01:02:42;96583.28;;;2.08;67.91
10462;BME280;5278;42.656;23.374;2024-01-30T01:05:10;96575.13;;;2.00;68.26
10462;BME280;5278;42.656;23.374;2024-01-30T01:07:37;96574.91;;;2.05;68.43
10462;BME280;5278;42.656;23.374;2024-01-30T01:10:06;96567.09;;;2.08;68.17
10462;BME280;5278;42.656;23.374;2024-01-30T01:12:33;96575.97;;;2.01;68.48
10462;BME280;5278;42.656;23.374;2024-01-30T01:15:00;96562.41;;;1.99;68.95
10462;BME280;5278;42.656;23.374;2024-01-30T01:17:29;96586.81;;;2.06;69.79
10462;BME280;5278;42.656;23.374;2024-01-30T01:19:55;96585.53;;;1.97;69.43
10462;BME280;5278;42.656;23.374;2024-01-30T01:22:22;96567.44;;;1.83;69.54
10462;BME280;5278;42.656;23.374;2024-01-30T01:24:49;96580.56;;;1.94;69.27
10462;BME280;5278;42.656;23.374;2024-01-30T01:27:16;96571.44;;;1.89;69.70
10462;BME280;5278;42.656;23.374;2024-01-30T01:29:42;96577.97;;;1.77;69.43
10462;BME280;5278;42.656;23.374;2024-01-30T01:32:09;96581.97;;;1.83;70.74
10462;BME280;5278;42.656;23.374;2024-01-30T01:34:38;96574.72;;;1.73;70.37
10462;BME280;5278;42.656;23.374;2024-01-30T01:37:06;96580.59;;;1.76;70.78
10462;BME280;5278;42.656;23.374;2024-01-30T01:39:33;96580.97;;;1.68;70.51
10462;BME280;5278;42.656;23.374;2024-01-30T01:42:00;96573.00;;;1.74;70.74
10462;BME280;5278;42.656;23.374;2024-01-30T01:44:27;96579.91;;;1.72;70.63
10462;BME280;5278;42.656;23.374;2024-01-30T01:46:56;96571.41;;;1.71;70.74
10462;BME280;5278;42.656;23.374;2024-01-30T01:49:25;96596.50;;;1.82;69.84
10462;BME280;5278;42.656;23.374;2024-01-30T01:51:55;96588.28;;;1.76;70.37
10462;BME280;5278;42.656;23.374;2024-01-30T01:54:24;96583.16;;;1.76;70.82
10462;BME280;5278;42.656;23.374;2024-01-30T01:56:52;96531.75;;;1.44;71.04
10462;BME280;5278;42.656;23.374;2024-01-30T01:59:20;96574.84;;;1.70;70.64
10462;BME280;5278;42.656;23.374;2024-01-30T02:01:48;96593.28;;;1.79;69.85
10462;BME280;5278;42.656;23.374;2024-01-30T02:04:15;96590.28;;;1.88;69.38
10462;BME280;5278;42.656;23.374;2024-01-30T02:06:43;96594.28;;;1.93;68.67
10462;BME280;5278;42.656;23.374;2024-01-30T02:09:11;96591.78;;;1.92;69.23
10462;BME280;5278;42.656;23.374;2024-01-30T02:11:38;96586.50;;;1.95;67.39
10462;BME280;5278;42.656;23.374;2024-01-30T02:14:06;96585.00;;;1.91;67.64
10462;BME280;5278;42.656;23.374;2024-01-30T02:16:33;96592.94;;;2.03;67.39
10462;BME280;5278;42.656;23.374;2024-01-30T02:19:00;96568.56;;;1.95;67.27
10462;BME280;5278;42.656;23.374;2024-01-30T02:21:28;96583.06;;;2.13;66.16
10462;BME280;5278;42.656;23.374;2024-01-30T02:23:55;96588.09;;;2.14;65.34
10462;BME280;5278;42.656;23.374;2024-01-30T02:26:23;96590.31;;;2.22;65.34
10462;BME280;5278;42.656;23.374;2024-01-30T02:28:50;96588.09;;;2.14;66.01
10462;BME280;5278;42.656;23.374;2024-01-30T02:31:17;96578.69;;;2.15;65.88
10462;BME280;5278;42.656;23.374;2024-01-30T02:33:43;96587.38;;;2.12;65.92
10462;BME280;5278;42.656;23.374;2024-01-30T02:36:10;96589.88;;;2.14;65.87
10462;BME280;5278;42.656;23.374;2024-01-30T02:38:38;96594.22;;;2.12;65.46
10462;BME280;5278;42.656;23.374;2024-01-30T02:41:05;96587.81;;;2.21;65.27
10462;BME280;5278;42.656;23.374;2024-01-30T02:43:32;96586.00;;;2.23;64.46
10462;BME280;5278;42.656;23.374;2024-01-30T02:45:59;96582.00;;;2.17;65.28
10462;BME280;5278;42.656;23.374;2024-01-30T02:48:26;96590.16;;;2.25;64.98
10462;BME280;5278;42.656;23.374;2024-01-30T02:50:53;96593.47;;;2.27;65.52
10462;BME280;5278;42.656;23.374;2024-01-30T02:53:20;96581.31;;;2.31;64.31
10462;BME280;5278;42.656;23.374;2024-01-30T02:55:48;96586.53;;;2.29;64.67
10462;BME280;5278;42.656;23.374;2024-01-30T02:58:15;96580.06;;;2.22;64.28
10462;BME280;5278;42.656;23.374;2024-01-30T03:00:42;96584.72;;;2.31;64.31
10462;BME280;5278;42.656;23.374;2024-01-30T03:03:09;96583.06;;;2.30;64.81
10462;BME280;5278;42.656;23.374;2024-01-30T03:05:36;96567.53;;;2.33;64.26
10462;BME280;5278;42.656;23.374;2024-01-30T03:08:04;96569.34;;;2.31;64.67
10462;BME280;5278;42.656;23.374;2024-01-30T03:10:31;96584.06;;;2.28;65.04
10462;BME280;5278;42.656;23.374;2024-01-30T03:12:59;96577.81;;;2.33;65.26
10462;BME280;5278;42.656;23.374;2024-01-30T03:15:26;96575.50;;;2.44;63.96
10462;BME280;5278;42.656;23.374;2024-01-30T03:17:54;96580.72;;;2.43;64.30
10462;BME280;5278;42.656;23.374;2024-01-30T03:20:20;96581.56;;;2.43;64.52
10462;BME280;5278;42.656;23.374;2024-01-30T03:22:47;96576.44;;;2.43;64.31
10462;BME280;5278;42.656;23.374;2024-01-30T03:25:14;96581.19;;;2.34;64.51
10462;BME280;5278;42.656;23.374;2024-01-30T03:27:42;96567.97;;;2.41;63.25
10462;BME280;5278;42.656;23.374;2024-01-30T03:30:11;96568.22;;;2.37;63.57
10462;BME280;5278;42.656;23.374;2024-01-30T03:32:38;96452.31;;;1.63;63.25
10462;BME280;5278;42.656;23.374;2024-01-30T03:35:05;96566.47;;;2.37;63.48
10462;BME280;5278;42.656;23.374;2024-01-30T03:37:32;96567.31;;;2.38;63.33
10462;BME280;5278;42.656;23.374;2024-01-30T03:39:59;96572.81;;;2.30;63.86
10462;BME280;5278;42.656;23.374;2024-01-30T03:42:26;96574.25;;;2.36;63.77
10462;BME280;5278;42.656;23.374;2024-01-30T03:44:53;96491.09;;;1.90;63.35
10462;BME280;5278;42.656;23.374;2024-01-30T03:47:22;96565.88;;;2.32;63.19
10462;BME280;5278;42.656;23.374;2024-01-30T03:49:49;96566.00;;;2.29;63.82
10462;BME280;5278;42.656;23.374;2024-01-30T03:52:15;96560.22;;;2.26;61.63
10462;BME280;5278;42.656;23.374;2024-01-30T03:54:43;96541.47;;;2.08;61.55
10462;BME280;5278;42.656;23.374;2024-01-30T03:57:09;96561.03;;;2.26;61.18
10462;BME280;5278;42.656;23.374;2024-01-30T03:59:36;96562.66;;;2.29;61.54
10462;BME280;5278;42.656;23.374;2024-01-30T04:02:03;96559.16;;;2.30;61.26
10462;BME280;5278;42.656;23.374;2024-01-30T04:04:31;96559.31;;;2.27;59.76
10462;BME280;5278;42.656;23.374;2024-01-30T04:06:58;96559.44;;;2.41;59.85
10462;BME280;5278;42.656;23.374;2024-01-30T04:09:25;96539.56;;;2.29;60.91
10462;BME280;5278;42.656;23.374;2024-01-30T04:11:54;96556.16;;;2.39;60.81
10462;BME280;5278;42.656;23.374;2024-01-30T04:14:20;96555.38;;;2.37;60.39
10462;BME280;5278;42.656;23.374;2024-01-30T04:16:48;96559.63;;;2.38;59.33
10462;BME280;5278;42.656;23.374;2024-01-30T04:19:14;96557.66;;;2.43;58.69
10462;BME280;5278;42.656;23.374;2024-01-30T04:21:42;96559.63;;;2.38;59.86
10462;BME280;5278;42.656;23.374;2024-01-30T04:24:11;96561.78;;;2.45;60.64
10462;BME280;5278;42.656;23.374;2024-01-30T04:26:38;96556.34;;;2.51;61.11
10462;BME280;5278;42.656;23.374;2024-01-30T04:29:05;96559.97;;;2.47;61.81
10462;BME280;5278;42.656;23.374;2024-01-30T04:31:31;96547.28;;;2.44;61.55
10462;BME280;5278;42.656;23.374;2024-01-30T04:34:01;96559.69;;;2.53;61.29
10462;BME280;5278;42.656;23.374;2024-01-30T04:36:28;96567.44;;;2.52;60.95
10462;BME280;5278;42.656;23.374;2024-01-30T04:38:56;96568.28;;;2.52;60.87
10462;BME280;5278;42.656;23.374;2024-01-30T04:41:23;96575.91;;;2.54;60.92
10462;BME280;5278;42.656;23.374;2024-01-30T04:43:51;96569.25;;;2.50;61.21
10462;BME280;5278;42.656;23.374;2024-01-30T04:46:18;96568.56;;;2.46;62.37
10462;BME280;5278;42.656;23.374;2024-01-30T04:48:45;96569.94;;;2.36;62.53
10462;BME280;5278;42.656;23.374;2024-01-30T04:51:12;96581.56;;;2.26;62.28
10462;BME280;5278;42.656;23.374;2024-01-30T04:53:39;96589.31;;;2.25;62.98
10462;BME280;5278;42.656;23.374;2024-01-30T04:56:07;96586.00;;;2.23;63.29
10462;BME280;5278;42.656;23.374;2024-01-30T04:58:35;96596.22;;;2.24;63.83
10462;BME280;5278;42.656;23.374;2024-01-30T05:01:04;96588.03;;;2.16;63.99
10462;BME280;5278;42.656;23.374;2024-01-30T05:03:33;96575.66;;;2.07;63.24
10462;BME280;5278;42.656;23.374;2024-01-30T05:06:00;96591.06;;;2.07;63.46
10462;BME280;5278;42.656;23.374;2024-01-30T05:08:27;96581.84;;;2.03;63.12
10462;BME280;5278;42.656;23.374;2024-01-30T05:10:55;96572.94;;;1.93;63.11
10462;BME280;5278;42.656;23.374;2024-01-30T05:13:23;96591.41;;;1.99;62.87
10462;BME280;5278;42.656;23.374;2024-01-30T05:15:50;96587.22;;;1.98;63.14
10462;BME280;5278;42.656;23.374;2024-01-30T05:18:17;96592.41;;;1.97;62.69
10462;BME280;5278;42.656;23.374;2024-01-30T05:20:44;96600.91;;;1.97;63.21
10462;BME280;5278;42.656;23.374;2024-01-30T05:23:11;96592.16;;;2.01;63.48
10462;BME280;5278;42.656;23.374;2024-01-30T05:25:38;96603.53;;;1.96;63.52
10462;BME280;5278;42.656;23.374;2024-01-30T05:28:05;96585.38;;;1.83;63.62
10462;BME280;5278;42.656;23.374;2024-01-30T05:30:34;96590.41;;;1.85;63.62
10462;BME280;5278;42.656;23.374;2024-01-30T05:33:00;96593.13;;;1.82;63.33
10462;BME280;5278;42.656;23.374;2024-01-30T05:35:27;96604.75;;;1.89;63.65
10462;BME280;5278;42.656;23.374;2024-01-30T05:37:55;96584.22;;;1.71;63.62
10462;BME280;5278;42.656;23.374;2024-01-30T05:40:22;96586.09;;;1.68;62.33
10462;BME280;5278;42.656;23.374;2024-01-30T05:42:49;96597.91;;;1.70;62.43
10462;BME280;5278;42.656;23.374;2024-01-30T05:45:16;96607.19;;;1.73;63.23
10462;BME280;5278;42.656;23.374;2024-01-30T05:47:45;96602.69;;;1.78;63.03
10462;BME280;5278;42.656;23.374;2024-01-30T05:50:12;96598.91;;;1.85;62.55
10462;BME280;5278;42.656;23.374;2024-01-30T05:52:38;96600.75;;;1.83;61.95
10462;BME280;5278;42.656;23.374;2024-01-30T05:55:06;96599.22;;;1.79;62.91
10462;BME280;5278;42.656;23.374;2024-01-30T05:57:32;96593.69;;;1.69;61.97
10462;BME280;5278;42.656;23.374;2024-01-30T05:59:59;96601.16;;;2.10;61.41
10462;BME280;5278;42.656;23.374;2024-01-30T06:02:26;96593.19;;;2.33;60.57
10462;BME280;5278;42.656;23.374;2024-01-30T06:04:54;96604.16;;;2.70;59.99
10462;BME280;5278;42.656;23.374;2024-01-30T06:07:21;96595.53;;;2.88;58.78
10462;BME280;5278;42.656;23.374;2024-01-30T06:09:48;96605.94;;;2.85;57.56
10462;BME280;5278;42.656;23.374;2024-01-30T06:12:15;96599.13;;;2.68;57.61
10462;BME280;5278;42.656;23.374;2024-01-30T06:14:42;96607.34;;;2.57;58.76
10462;BME280;5278;42.656;23.374;2024-01-30T06:17:09;96594.22;;;2.46;57.64
10462;BME280;5278;42.656;23.374;2024-01-30T06:19:37;96598.38;;;2.49;58.19
10462;BME280;5278;42.656;23.374;2024-01-30T06:22:05;96599.34;;;2.46;59.25
10462;BME280;5278;42.656;23.374;2024-01-30T06:24:32;96596.63;;;2.49;59.05
10462;BME280;5278;42.656;23.374;2024-01-30T06:27:00;96608.56;;;2.50;58.59
10462;BME280;5278;42.656;23.374;2024-01-30T06:29:28;96596.66;;;2.32;58.75
10462;BME280;5278;42.656;23.374;2024-01-30T06:31:55;96600.03;;;2.50;58.33
10462;BME280;5278;42.656;23.374;2024-01-30T06:34:22;96601.69;;;2.51;59.26
10462;BME280;5278;42.656;23.374;2024-01-30T06:36:49;96608.09;;;2.59;59.17
10462;BME280;5278;42.656;23.374;2024-01-30T06:39:18;96602.88;;;2.61;59.59
10462;BME280;5278;42.656;23.374;2024-01-30T06:41:45;96603.19;;;3.05;60.61
10462;BME280;5278;42.656;23.374;2024-01-30T06:44:12;96605.84;;;3.68;58.00
10462;BME280;5278;42.656;23.374;2024-01-30T06:46:39;96594.59;;;4.60;55.60
10462;BME280;5278;42.656;23.374;2024-01-30T06:49:07;96589.22;;;6.17;52.31
10462;BME280;5278;42.656;23.374;2024-01-30T06:51:35;96589.72;;;8.10;46.35
10462;BME280;5278;42.656;23.374;2024-01-30T06:54:01;96577.66;;;9.47;40.28
10462;BME280;5278;42.656;23.374;2024-01-30T06:56:30;96578.78;;;9.88;37.69
10462;BME280;5278;42.656;23.374;2024-01-30T06:58:56;96579.81;;;10.51;35.02
10462;BME280;5278;42.656;23.374;2024-01-30T07:01:28;96582.00;;;10.76;33.38
10462;BME280;5278;42.656;23.374;2024-01-30T07:03:55;96573.84;;;10.81;33.09
10462;BME280;5278;42.656;23.374;2024-01-30T07:06:22;96570.16;;;10.62;33.09
10462;BME280;5278;42.656;23.374;2024-01-30T07:08:49;96578.66;;;10.64;32.67
10462;BME280;5278;42.656;23.374;2024-01-30T07:11:18;96579.50;;;10.65;32.87
10462;BME280;5278;42.656;23.374;2024-01-30T07:13:46;96579.50;;;10.65;33.49
10462;BME280;5278;42.656;23.374;2024-01-30T07:16:14;96583.59;;;10.88;32.91
10462;BME280;5278;42.656;23.374;2024-01-30T07:18:41;96580.03;;;11.31;31.97
10462;BME280;5278;42.656;23.374;2024-01-30T07:21:08;96580.09;;;11.50;31.26
10462;BME280;5278;42.656;23.374;2024-01-30T07:23:35;96580.09;;;11.80;30.94
10462;BME280;5278;42.656;23.374;2024-01-30T07:26:04;96542.06;;;11.68;30.76
10462;BME280;5278;42.656;23.374;2024-01-30T07:28:33;96584.56;;;12.47;29.89
10462;BME280;5278;42.656;23.374;2024-01-30T07:31:01;96579.72;;;12.71;29.26
10462;BME280;5278;42.656;23.374;2024-01-30T07:33:28;96576.59;;;12.68;29.28
10462;BME280;5278;42.656;23.374;2024-01-30T07:35:55;96571.63;;;12.93;28.54
10462;BME280;5278;42.656;23.374;2024-01-30T07:38:22;96577.13;;;12.71;28.70
10462;BME280;5278;42.656;23.374;2024-01-30T07:40:49;96569.84;;;12.65;28.81
10462;BME280;5278;42.656;23.374;2024-01-30T07:43:16;96577.41;;;12.68;28.84
10462;BME280;5278;42.656;23.374;2024-01-30T07:45:43;96570.94;;;12.72;29.08
10462;BME280;5278;42.656;23.374;2024-01-30T07:48:11;96567.34;;;13.02;28.36
10462;BME280;5278;42.656;23.374;2024-01-30T07:50:38;96566.22;;;13.24;28.15
10462;BME280;5278;42.656;23.374;2024-01-30T07:53:04;96567.94;;;13.43;27.67
10462;BME280;5278;42.656;23.374;2024-01-30T07:55:31;96573.09;;;13.52;27.68
10462;BME280;5278;42.656;23.374;2024-01-30T07:57:58;96566.88;;;13.26;27.91
10462;BME280;5278;42.656;23.374;2024-01-30T08:00:25;96571.31;;;13.53;27.46
10462;BME280;5278;42.656;23.374;2024-01-30T08:02:52;96564.59;;;13.77;27.04
10462;BME280;5278;42.656;23.374;2024-01-30T08:05:22;96563.13;;;13.93;27.06
10462;BME280;5278;42.656;23.374;2024-01-30T08:07:49;96548.25;;;14.56;26.28
10462;BME280;5278;42.656;23.374;2024-01-30T08:10:16;96572.44;;;14.76;25.99
10462;BME280;5278;42.656;23.374;2024-01-30T08:12:44;96556.00;;;14.83;25.73
10462;BME280;5278;42.656;23.374;2024-01-30T08:15:11;96555.59;;;15.22;25.68
10462;BME280;5278;42.656;23.374;2024-01-30T08:17:39;96558.34;;;15.72;24.89
10462;BME280;5278;42.656;23.374;2024-01-30T08:20:06;96554.75;;;15.73;24.67
10462;BME280;5278;42.656;23.374;2024-01-30T08:22:39;96560.78;;;16.31;24.58
10462;BME280;5278;42.656;23.374;2024-01-30T08:25:07;96553.97;;;16.63;24.19
10462;BME280;5278;42.656;23.374;2024-01-30T08:27:35;96548.31;;;17.31;23.62
10462;BME280;5278;42.656;23.374;2024-01-30T08:30:04;96537.38;;;17.66;23.05
10462;BME280;5278;42.656;23.374;2024-01-30T08:32:32;96544.81;;;18.24;22.49
10462;BME280;5278;42.656;23.374;2024-01-30T08:34:59;96550.06;;;18.24;21.98
10462;BME280;5278;42.656;23.374;2024-01-30T08:37:29;96547.41;;;18.01;22.43
10462;BME280;5278;42.656;23.374;2024-01-30T08:39:57;96559.91;;;17.99;22.22
10462;BME280;5278;42.656;23.374;2024-01-30T08:42:24;96560.50;;;17.79;22.11
10462;BME280;5278;42.656;23.374;2024-01-30T08:44:51;96535.88;;;16.35;23.32
10462;BME280;5278;42.656;23.374;2024-01-30T08:47:19;96574.31;;;15.53;24.07
10462;BME280;5278;42.656;23.374;2024-01-30T08:49:46;96578.06;;;14.45;25.43
10462;BME280;5278;42.656;23.374;2024-01-30T08:52:13;96581.50;;;13.46;26.54
10462;BME280;5278;42.656;23.374;2024-01-30T08:54:40;96579.63;;;12.34;28.04
10462;BME280;5278;42.656;23.374;2024-01-30T08:57:08;96590.34;;;11.82;28.83
10462;BME280;5278;42.656;23.374;2024-01-30T08:59:35;96597.16;;;11.12;29.44
10462;BME280;5278;42.656;23.374;2024-01-30T09:02:02;96595.88;;;10.45;30.76
10462;BME280;5278;42.656;23.374;2024-01-30T09:04:29;96596.09;;;10.21;31.33
10462;BME280;5278;42.656;23.374;2024-01-30T09:06:56;96594.19;;;10.12;31.83
10462;BME280;5278;42.656;23.374;2024-01-30T09:09:23;96591.03;;;9.97;32.13
10462;BME280;5278;42.656;23.374;2024-01-30T09:11:50;96596.69;;;10.02;32.28
10462;BME280;5278;42.656;23.374;2024-01-30T09:14:19;96594.16;;;9.80;32.70
10462;BME280;5278;42.656;23.374;2024-01-30T09:16:46;96579.78;;;9.42;33.60
10462;BME280;5278;42.656;23.374;2024-01-30T09:19:14;96584.84;;;9.33;34.07
10462;BME280;5278;42.656;23.374;2024-01-30T09:21:41;96581.44;;;9.32;33.92
10462;BME280;5278;42.656;23.374;2024-01-30T09:24:08;96584.25;;;9.18;34.01
10462;BME280;5278;42.656;23.374;2024-01-30T09:26:35;96573.66;;;9.66;33.52
10462;BME280;5278;42.656;23.374;2024-01-30T09:29:02;96569.16;;;10.95;31.47
10462;BME280;5278;42.656;23.374;2024-01-30T09:31:30;96562.44;;;12.70;28.96
10462;BME280;5278;42.656;23.374;2024-01-30T09:33:57;96559.91;;;14.61;26.65
10462;BME280;5278;42.656;23.374;2024-01-30T09:36:24;96554.53;;;16.16;24.67
10462;BME280;5278;42.656;23.374;2024-01-30T09:38:50;96540.75;;;17.36;23.25
10462;BME280;5278;42.656;23.374;2024-01-30T09:41:20;96551.78;;;18.40;22.54
10462;BME280;5278;42.656;23.374;2024-01-30T09:43:50;96551.88;;;19.29;21.84
10462;BME280;5278;42.656;23.374;2024-01-30T09:46:18;96535.91;;;19.60;21.24
10462;BME280;5278;42.656;23.374;2024-01-30T09:48:48;96526.63;;;19.64;21.00
10462;BME280;5278;42.656;23.374;2024-01-30T09:51:16;96534.00;;;19.69;21.43
10462;BME280;5278;42.656;23.374;2024-01-30T09:53:44;96532.44;;;20.25;21.01
10462;BME280;5278;42.656;23.374;2024-01-30T09:56:12;96522.22;;;20.37;21.06
10462;BME280;5278;42.656;23.374;2024-01-30T09:58:39;96524.41;;;20.54;20.66
10462;BME280;5278;42.656;23.374;2024-01-30T10:01:07;96528.78;;;19.17;21.67
10462;BME280;5278;42.656;23.374;2024-01-30T10:03:34;96529.34;;;17.68;23.06
10462;BME280;5278;42.656;23.374;2024-01-30T10:06:02;96537.06;;;16.82;24.02
10462;BME280;5278;42.656;23.374;2024-01-30T10:08:30;96530.97;;;15.74;24.93
10462;BME280;5278;42.656;23.374;2024-01-30T10:10:57;96526.66;;;14.54;25.71
10462;BME280;5278;42.656;23.374;2024-01-30T10:13:24;96534.22;;;13.76;26.84
10462;BME280;5278;42.656;23.374;2024-01-30T10:15:52;96546.06;;;12.97;27.84
10462;BME280;5278;42.656;23.374;2024-01-30T10:18:20;96544.78;;;12.45;29.01
10462;BME280;5278;42.656;23.374;2024-01-30T10:20:48;96541.16;;;11.88;29.78
10462;BME280;5278;42.656;23.374;2024-01-30T10:23:20;96550.59;;;11.40;30.83
10462;BME280;5278;42.656;23.374;2024-01-30T10:25:46;96550.25;;;10.93;31.47
10462;BME280;5278;42.656;23.374;2024-01-30T10:28:13;96546.38;;;10.67;32.06
10462;BME280;5278;42.656;23.374;2024-01-30T10:30:40;96548.56;;;11.43;31.65
10462;BME280;5278;42.656;23.374;2024-01-30T10:33:07;96538.16;;;12.22;30.31
10462;BME280;5278;42.656;23.374;2024-01-30T10:35:34;96536.13;;;13.10;29.34
10462;BME280;5278;42.656;23.374;2024-01-30T10:38:01;96535.63;;;14.34;27.71
10462;BME280;5278;42.656;23.374;2024-01-30T10:40:31;96534.09;;;14.31;27.26
10462;BME280;5278;42.656;23.374;2024-01-30T10:43:01;96537.13;;;13.73;27.94
10462;BME280;5278;42.656;23.374;2024-01-30T10:45:28;96539.91;;;12.88;28.69
10462;BME280;5278;42.656;23.374;2024-01-30T10:47:57;96539.81;;;12.23;30.01
10462;BME280;5278;42.656;23.374;2024-01-30T10:50:25;96547.97;;;11.00;31.61
10462;BME280;5278;42.656;23.374;2024-01-30T10:52:54;96543.97;;;10.33;32.15
10462;BME280;5278;42.656;23.374;2024-01-30T10:55:21;96505.19;;;9.78;32.99
10462;BME280;5278;42.656;23.374;2024-01-30T10:57:50;96546.22;;;9.84;33.73
10462;BME280;5278;42.656;23.374;2024-01-30T11:00:17;96533.28;;;9.62;33.57
10462;BME280;5278;42.656;23.374;2024-01-30T11:02:49;96526.47;;;9.49;33.85
10462;BME280;5278;42.656;23.374;2024-01-30T11:05:23;96522.13;;;9.50;33.78
10462;BME280;5278;42.656;23.374;2024-01-30T11:07:50;96522.88;;;9.73;34.30
10462;BME280;5278;42.656;23.374;2024-01-30T11:10:17;96476.78;;;9.97;33.68
10462;BME280;5278;42.656;23.374;2024-01-30T11:12:46;96513.56;;;10.66;32.58
10462;BME280;5278;42.656;23.374;2024-01-30T11:15:15;96514.91;;;11.21;31.41
10462;BME280;5278;42.656;23.374;2024-01-30T11:17:43;96511.13;;;11.35;31.65
10462;BME280;5278;42.656;23.374;2024-01-30T11:20:11;96512.75;;;11.36;31.35
10462;BME280;5278;42.656;23.374;2024-01-30T11:22:44;96515.19;;;10.67;32.52
10462;BME280;5278;42.656;23.374;2024-01-30T11:25:14;96513.81;;;10.10;32.96
10462;BME280;5278;42.656;23.374;2024-01-30T11:27:41;96511.75;;;9.93;33.69
10462;BME280;5278;42.656;23.374;2024-01-30T11:30:09;96511.97;;;9.47;34.24
10462;BME280;5278;42.656;23.374;2024-01-30T11:32:37;96514.25;;;9.29;34.73
10462;BME280;5278;42.656;23.374;2024-01-30T11:35:05;96521.91;;;9.08;34.97
10462;BME280;5278;42.656;23.374;2024-01-30T11:37:36;96516.09;;;9.49;35.10
10462;BME280;5278;42.656;23.374;2024-01-30T11:40:04;96510.75;;;11.09;33.28
10462;BME280;5278;42.656;23.374;2024-01-30T11:42:34;96502.06;;;12.56;30.75
10462;BME280;5278;42.656;23.374;2024-01-30T11:45:05;96495.03;;;13.22;29.01
10462;BME280;5278;42.656;23.374;2024-01-30T11:47:37;96494.69;;;13.62;28.44
10462;BME280;5278;42.656;23.374;2024-01-30T11:50:04;96488.72;;;14.14;27.72
10462;BME280;5278;42.656;23.374;2024-01-30T11:52:32;96481.31;;;14.71;27.31
10462;BME280;5278;42.656;23.374;2024-01-30T11:54:59;96480.56;;;15.38;26.61
10462;BME280;5278;42.656;23.374;2024-01-30T11:57:26;96483.63;;;15.68;26.12
10462;BME280;5278;42.656;23.374;2024-01-30T11:59:53;96489.16;;;15.57;25.83
10462;BME280;5278;42.656;23.374;2024-01-30T12:02:20;96478.19;;;15.27;25.93
10462;BME280;5278;42.656;23.374;2024-01-30T12:04:52;96462.63;;;15.26;26.17
10462;BME280;5278;42.656;23.374;2024-01-30T12:07:19;96458.78;;;15.04;36.23
10462;BME280;5278;42.656;23.374;2024-01-30T12:09:52;96450.28;;;17.22;67.58
10462;BME280;5278;42.656;23.374;2024-01-30T12:12:21;96438.06;;;19.11;54.39
10462;BME280;5278;42.656;23.374;2024-01-30T12:14:49;96402.31;;;20.10;43.69
10462;BME280;5278;42.656;23.374;2024-01-30T12:17:23;96425.91;;;21.16;37.23
10462;BME280;5278;42.656;23.374;2024-01-30T12:20:02;96415.88;;;21.53;27.10
10462;BME280;5278;42.656;23.374;2024-01-30T12:22:30;96412.84;;;21.56;25.52
10462;BME280;5278;42.656;23.374;2024-01-30T12:24:57;96427.41;;;21.04;26.35
10462;BME280;5278;42.656;23.374;2024-01-30T12:27:25;96424.31;;;20.94;23.78
10462;BME280;5278;42.656;23.374;2024-01-30T12:29:56;96420.13;;;21.13;22.74
10462;BME280;5278;42.656;23.374;2024-01-30T12:32:23;96417.91;;;21.10;22.66
10462;BME280;5278;42.656;23.374;2024-01-30T12:34:54;96410.22;;;21.15;22.53
10462;BME280;5278;42.656;23.374;2024-01-30T12:37:21;96406.03;;;20.99;21.96
10462;BME280;5278;42.656;23.374;2024-01-30T12:39:51;96400.09;;;20.62;22.44
10462;BME280;5278;42.656;23.374;2024-01-30T12:42:19;96404.00;;;20.39;22.49
10462;BME280;5278;42.656;23.374;2024-01-30T12:44:46;96406.31;;;19.85;21.31
10462;BME280;5278;42.656;23.374;2024-01-30T12:47:13;96412.00;;;18.72;22.08
10462;BME280;5278;42.656;23.374;2024-01-30T12:49:41;96409.19;;;17.91;22.73
10462;BME280;5278;42.656;23.374;2024-01-30T12:52:10;96412.13;;;17.03;23.31
10462;BME280;5278;42.656;23.374;2024-01-30T12:54:37;96381.44;;;15.92;24.24
10462;BME280;5278;42.656;23.374;2024-01-30T12:57:04;96416.31;;;15.26;25.26
10462;BME280;5278;42.656;23.374;2024-01-30T12:59:33;96411.91;;;14.15;26.58
10462;BME280;5278;42.656;23.374;2024-01-30T13:02:00;96418.19;;;13.34;27.63
10462;BME280;5278;42.656;23.374;2024-01-30T13:04:28;96404.38;;;12.87;28.15
10462;BME280;5278;42.656;23.374;2024-01-30T13:06:55;96409.59;;;12.40;28.78
10462;BME280;5278;42.656;23.374;2024-01-30T13:09:24;96418.06;;;11.77;29.71